sensor_id;sensor_type;location;lat;lon;timestamp;pressure;altitude;pressure_sealevel;temperature;humidity
30897;BME280;17597;52.246;21.054;2022-08-03T00:02:15;100795.69;;;19.80;81.17
30897;BME280;17597;52.246;21.054;2022-08-03T00:04:40;100796.28;;;19.77;81.59
30897;BME280;17597;52.246;21.054;2022-08-03T00:07:06;100795.38;;;19.81;81.11
30897;BME280;17597;52.246;21.054;2022-08-03T00:09:31;100790.94;;;19.94;81.77
30897;BME280;17597;52.246;21.054;2022-08-03T00:11:56;100798.44;;;19.97;81.39
30897;BME280;17597;52.246;21.054;2022-08-03T00:14:22;100800.81;;;19.90;81.98
30897;BME280;17597;52.246;21.054;2022-08-03T00:16:47;100801.28;;;19.83;81.09
30897;BME280;17597;52.246;21.054;2022-08-03T00:19:12;100801.88;;;19.72;81.39
30897;BME280;17597;52.246;21.054;2022-08-03T00:21:38;100812.50;;;19.59;81.93
30897;BME280;17597;52.246;21.054;2022-08-03T00:24:04;100799.06;;;19.54;82.52
30897;BME280;17597;52.246;21.054;2022-08-03T00:26:29;100800.97;;;19.54;82.52
30897;BME280;17597;52.246;21.054;2022-08-03T00:28:55;100798.78;;;19.56;82.93
30897;BME280;17597;52.246;21.054;2022-08-03T00:31:21;100805.50;;;19.58;82.29
30897;BME280;17597;52.246;21.054;2022-08-03T00:33:46;100795.94;;;19.61;82.18
30897;BME280;17597;52.246;21.054;2022-08-03T00:36:12;100799.75;;;19.60;82.56
30897;BME280;17597;52.246;21.054;2022-08-03T00:38:38;100804.78;;;19.53;82.43
30897;BME280;17597;52.246;21.054;2022-08-03T00:41:03;100803.63;;;19.45;82.79
30897;BME280;17597;52.246;21.054;2022-08-03T00:43:28;100792.78;;;19.45;83.52
30897;BME280;17597;52.246;21.054;2022-08-03T00:45:54;100800.44;;;19.43;83.57
30897;BME280;17597;52.246;21.054;2022-08-03T00:48:21;100794.06;;;19.39;83.81
30897;BME280;17597;52.246;21.054;2022-08-03T00:50:46;100809.50;;;19.39;84.00
30897;BME280;17597;52.246;21.054;2022-08-03T00:53:13;100802.66;;;19.41;84.04
30897;BME280;17597;52.246;21.054;2022-08-03T00:55:41;100803.16;;;19.43;84.28
30897;BME280;17597;52.246;21.054;2022-08-03T00:58:08;100807.44;;;19.44;84.38
30897;BME280;17597;52.246;21.054;2022-08-03T01:00:37;100803.59;;;19.36;84.60
30897;BME280;17597;52.246;21.054;2022-08-03T01:03:07;100802.31;;;19.34;84.87
30897;BME280;17597;52.246;21.054;2022-08-03T01:08:44;100810.09;;;19.27;85.24
30897;BME280;17597;52.246;21.054;2022-08-03T01:14:12;100811.47;;;19.24;85.41
30897;BME280;17597;52.246;21.054;2022-08-03T01:17:13;100807.31;;;19.18;85.42
30897;BME280;17597;52.246;21.054;2022-08-03T01:20:08;100808.06;;;19.10;85.47
30897;BME280;17597;52.246;21.054;2022-08-03T01:23:05;100800.56;;;19.07;85.80
30897;BME280;17597;52.246;21.054;2022-08-03T01:31:18;100797.56;;;19.08;86.09
30897;BME280;17597;52.246;21.054;2022-08-03T01:33:52;100802.00;;;19.04;86.13
30897;BME280;17597;52.246;21.054;2022-08-03T01:36:22;100801.47;;;19.02;86.61
30897;BME280;17597;52.246;21.054;2022-08-03T01:38:53;100809.91;;;19.01;86.76
30897;BME280;17597;52.246;21.054;2022-08-03T01:41:21;100803.22;;;18.98;86.85
30897;BME280;17597;52.246;21.054;2022-08-03T01:43:50;100805.28;;;19.01;87.04
30897;BME280;17597;52.246;21.054;2022-08-03T01:46:18;100809.84;;;18.92;86.95
30897;BME280;17597;52.246;21.054;2022-08-03T01:48:47;100798.38;;;18.87;87.54
30897;BME280;17597;52.246;21.054;2022-08-03T01:51:15;100801.72;;;18.92;87.45
30897;BME280;17597;52.246;21.054;2022-08-03T01:53:43;100795.72;;;18.95;87.38
30897;BME280;17597;52.246;21.054;2022-08-03T01:56:09;100789.84;;;18.93;87.17
30897;BME280;17597;52.246;21.054;2022-08-03T01:58:35;100786.59;;;18.91;87.65
30897;BME280;17597;52.246;21.054;2022-08-03T02:01:02;100792.53;;;18.93;87.48
30897;BME280;17597;52.246;21.054;2022-08-03T02:03:31;100789.63;;;18.90;87.59
30897;BME280;17597;52.246;21.054;2022-08-03T02:05:59;100791.84;;;18.88;87.49
30897;BME280;17597;52.246;21.054;2022-08-03T02:08:29;100791.19;;;18.82;87.82
30897;BME280;17597;52.246;21.054;2022-08-03T02:10:57;100789.69;;;18.76;88.18
30897;BME280;17597;52.246;21.054;2022-08-03T02:13:25;100786.38;;;18.79;87.84
30897;BME280;17597;52.246;21.054;2022-08-03T02:15:52;100788.47;;;18.82;87.66
30897;BME280;17597;52.246;21.054;2022-08-03T02:18:19;100787.16;;;18.79;87.78
30897;BME280;17597;52.246;21.054;2022-08-03T02:20:46;100785.09;;;18.76;87.48
30897;BME280;17597;52.246;21.054;2022-08-03T02:23:16;100784.84;;;18.64;87.48
30897;BME280;17597;52.246;21.054;2022-08-03T02:25:49;100783.44;;;18.67;87.78
30897;BME280;17597;52.246;21.054;2022-08-03T02:28:19;100775.63;;;18.65;87.49
30897;BME280;17597;52.246;21.054;2022-08-03T02:30:52;100787.72;;;18.68;87.73
30897;BME280;17597;52.246;21.054;2022-08-03T02:33:25;100784.72;;;18.69;87.53
30897;BME280;17597;52.246;21.054;2022-08-03T02:35:52;100773.72;;;18.66;87.76
30897;BME280;17597;52.246;21.054;2022-08-03T02:38:20;100786.94;;;18.67;87.51
30897;BME280;17597;52.246;21.054;2022-08-03T02:40:49;100790.53;;;18.63;87.95
30897;BME280;17597;52.246;21.054;2022-08-03T02:43:17;100790.84;;;18.61;88.18
30897;BME280;17597;52.246;21.054;2022-08-03T02:45:46;100793.22;;;18.63;88.26
30897;BME280;17597;52.246;21.054;2022-08-03T02:48:16;100790.00;;;18.61;88.25
30897;BME280;17597;52.246;21.054;2022-08-03T02:50:44;100786.34;;;18.57;88.33
30897;BME280;17597;52.246;21.054;2022-08-03T02:53:11;100793.16;;;18.54;88.37
30897;BME280;17597;52.246;21.054;2022-08-03T02:55:38;100796.25;;;18.61;88.13
30897;BME280;17597;52.246;21.054;2022-08-03T02:58:04;100793.81;;;18.60;87.96
30897;BME280;17597;52.246;21.054;2022-08-03T03:00:31;100799.22;;;18.60;88.33
30897;BME280;17597;52.246;21.054;2022-08-03T03:02:59;100795.03;;;18.67;86.17
30897;BME280;17597;52.246;21.054;2022-08-03T03:05:26;100801.06;;;18.64;86.43
30897;BME280;17597;52.246;21.054;2022-08-03T03:07:53;100793.75;;;18.65;86.58
30897;BME280;17597;52.246;21.054;2022-08-03T03:10:23;100803.16;;;18.67;86.67
30897;BME280;17597;52.246;21.054;2022-08-03T03:12:52;100801.84;;;18.65;87.25
30897;BME280;17597;52.246;21.054;2022-08-03T03:15:19;100794.13;;;18.58;87.60
30897;BME280;17597;52.246;21.054;2022-08-03T03:17:47;100801.75;;;18.56;87.68
30897;BME280;17597;52.246;21.054;2022-08-03T03:20:14;100805.06;;;18.53;88.02
30897;BME280;17597;52.246;21.054;2022-08-03T03:22:40;100803.03;;;18.59;87.90
30897;BME280;17597;52.246;21.054;2022-08-03T03:25:06;100803.78;;;18.64;87.92
30897;BME280;17597;52.246;21.054;2022-08-03T03:27:32;100799.34;;;18.68;88.24
30897;BME280;17597;52.246;21.054;2022-08-03T03:29:59;100800.66;;;18.93;86.45
30897;BME280;17597;52.246;21.054;2022-08-03T03:32:26;100801.19;;;19.04;84.71
30897;BME280;17597;52.246;21.054;2022-08-03T03:34:53;100803.09;;;19.03;84.25
30897;BME280;17597;52.246;21.054;2022-08-03T03:37:19;100809.91;;;19.01;84.32
30897;BME280;17597;52.246;21.054;2022-08-03T03:39:44;100810.34;;;18.94;84.88
30897;BME280;17597;52.246;21.054;2022-08-03T03:42:10;100807.09;;;18.84;85.63
30897;BME280;17597;52.246;21.054;2022-08-03T03:44:35;100813.72;;;18.77;86.39
30897;BME280;17597;52.246;21.054;2022-08-03T03:47:01;100806.41;;;18.78;86.22
30897;BME280;17597;52.246;21.054;2022-08-03T03:49:27;100814.69;;;18.82;86.18
30897;BME280;17597;52.246;21.054;2022-08-03T03:51:53;100809.03;;;18.92;85.15
30897;BME280;17597;52.246;21.054;2022-08-03T03:54:19;100808.00;;;19.01;84.58
30897;BME280;17597;52.246;21.054;2022-08-03T03:56:45;100813.00;;;19.08;84.04
30897;BME280;17597;52.246;21.054;2022-08-03T03:59:10;100811.09;;;18.86;84.52
30897;BME280;17597;52.246;21.054;2022-08-03T04:01:37;100815.47;;;18.96;83.13
30897;BME280;17597;52.246;21.054;2022-08-03T04:04:03;100816.38;;;18.91;82.81
30897;BME280;17597;52.246;21.054;2022-08-03T04:06:48;100818.16;;;18.73;83.58
30897;BME280;17597;52.246;21.054;2022-08-03T04:09:35;100822.72;;;18.87;82.78
30897;BME280;17597;52.246;21.054;2022-08-03T04:12:22;100825.34;;;18.78;83.26
30897;BME280;17597;52.246;21.054;2022-08-03T04:14:50;100826.28;;;18.73;83.77
30897;BME280;17597;52.246;21.054;2022-08-03T04:17:21;100827.94;;;18.83;83.70
30897;BME280;17597;52.246;21.054;2022-08-03T04:19:49;100832.16;;;18.75;84.03
30897;BME280;17597;52.246;21.054;2022-08-03T04:22:19;100840.78;;;18.64;85.58
30897;BME280;17597;52.246;21.054;2022-08-03T04:24:49;100844.69;;;18.58;86.45
30897;BME280;17597;52.246;21.054;2022-08-03T04:27:17;100838.00;;;18.55;87.16
30897;BME280;17597;52.246;21.054;2022-08-03T04:29:47;100840.41;;;18.57;87.75
30897;BME280;17597;52.246;21.054;2022-08-03T04:32:14;100848.69;;;18.60;88.25
30897;BME280;17597;52.246;21.054;2022-08-03T04:34:39;100839.78;;;18.60;88.62
30897;BME280;17597;52.246;21.054;2022-08-03T04:37:10;100849.81;;;18.73;88.30
30897;BME280;17597;52.246;21.054;2022-08-03T04:39:37;100852.06;;;18.79;88.32
30897;BME280;17597;52.246;21.054;2022-08-03T04:42:06;100851.91;;;18.98;87.16
30897;BME280;17597;52.246;21.054;2022-08-03T04:44:36;100850.19;;;19.02;87.28
30897;BME280;17597;52.246;21.054;2022-08-03T04:47:02;100852.16;;;19.11;86.92
30897;BME280;17597;52.246;21.054;2022-08-03T04:49:28;100845.81;;;19.15;86.70
30897;BME280;17597;52.246;21.054;2022-08-03T04:51:54;100851.91;;;19.21;86.67
30897;BME280;17597;52.246;21.054;2022-08-03T04:54:20;100856.41;;;19.25;86.76
30897;BME280;17597;52.246;21.054;2022-08-03T04:56:45;100864.44;;;19.39;86.33
30897;BME280;17597;52.246;21.054;2022-08-03T04:59:11;100863.69;;;19.47;86.03
30897;BME280;17597;52.246;21.054;2022-08-03T05:01:38;100861.16;;;19.51;86.29
30897;BME280;17597;52.246;21.054;2022-08-03T05:04:03;100861.03;;;19.56;85.92
30897;BME280;17597;52.246;21.054;2022-08-03T05:06:29;100865.91;;;19.68;85.01
30897;BME280;17597;52.246;21.054;2022-08-03T05:08:54;100859.06;;;19.70;84.05
30897;BME280;17597;52.246;21.054;2022-08-03T05:11:20;100866.88;;;19.72;83.95
30897;BME280;17597;52.246;21.054;2022-08-03T05:13:45;100864.47;;;19.70;84.24
30897;BME280;17597;52.246;21.054;2022-08-03T05:16:11;100871.00;;;19.78;83.42
30897;BME280;17597;52.246;21.054;2022-08-03T05:18:38;100872.28;;;19.72;84.96
30897;BME280;17597;52.246;21.054;2022-08-03T05:21:05;100871.69;;;19.83;83.67
30897;BME280;17597;52.246;21.054;2022-08-03T05:23:30;100880.31;;;19.85;84.12
30897;BME280;17597;52.246;21.054;2022-08-03T05:25:56;100877.03;;;20.06;82.77
30897;BME280;17597;52.246;21.054;2022-08-03T05:28:21;100879.25;;;20.04;83.28
30897;BME280;17597;52.246;21.054;2022-08-03T05:30:47;100877.03;;;20.06;82.38
30897;BME280;17597;52.246;21.054;2022-08-03T05:33:12;100886.13;;;20.01;82.80
30897;BME280;17597;52.246;21.054;2022-08-03T05:35:38;100883.22;;;19.98;83.50
30897;BME280;17597;52.246;21.054;2022-08-03T05:38:04;100883.88;;;20.03;83.64
30897;BME280;17597;52.246;21.054;2022-08-03T05:40:30;100883.44;;;20.18;82.28
30897;BME280;17597;52.246;21.054;2022-08-03T05:42:56;100891.47;;;20.41;79.89
30897;BME280;17597;52.246;21.054;2022-08-03T05:45:22;100886.59;;;20.43;78.94
30897;BME280;17597;52.246;21.054;2022-08-03T05:47:47;100895.31;;;20.31;80.10
30897;BME280;17597;52.246;21.054;2022-08-03T05:50:16;100892.09;;;20.38;80.04
30897;BME280;17597;52.246;21.054;2022-08-03T05:52:42;100895.50;;;20.52;78.49
30897;BME280;17597;52.246;21.054;2022-08-03T05:55:11;100889.94;;;20.57;78.13
30897;BME280;17597;52.246;21.054;2022-08-03T05:57:39;100896.47;;;20.47;79.54
30897;BME280;17597;52.246;21.054;2022-08-03T06:00:09;100893.38;;;20.40;80.24
30897;BME280;17597;52.246;21.054;2022-08-03T06:02:35;100897.38;;;20.34;80.84
30897;BME280;17597;52.246;21.054;2022-08-03T06:05:01;100901.53;;;20.32;81.47
30897;BME280;17597;52.246;21.054;2022-08-03T06:07:26;100896.72;;;20.29;81.57
30897;BME280;17597;52.246;21.054;2022-08-03T06:09:52;100904.91;;;20.46;80.46
30897;BME280;17597;52.246;21.054;2022-08-03T06:12:17;100905.75;;;20.72;78.10
30897;BME280;17597;52.246;21.054;2022-08-03T06:14:43;100908.00;;;20.79;77.80
30897;BME280;17597;52.246;21.054;2022-08-03T06:17:08;100907.84;;;20.84;77.64
30897;BME280;17597;52.246;21.054;2022-08-03T06:19:34;100900.66;;;20.97;76.77
30897;BME280;17597;52.246;21.054;2022-08-03T06:21:59;100897.31;;;21.00;77.75
30897;BME280;17597;52.246;21.054;2022-08-03T06:24:24;100908.47;;;21.16;76.61
30897;BME280;17597;52.246;21.054;2022-08-03T06:26:50;100909.28;;;21.16;77.08
30897;BME280;17597;52.246;21.054;2022-08-03T06:29:16;100902.72;;;21.34;75.43
30897;BME280;17597;52.246;21.054;2022-08-03T06:31:41;100902.59;;;21.40;75.36
30897;BME280;17597;52.246;21.054;2022-08-03T06:34:07;100897.94;;;21.40;76.60
30897;BME280;17597;52.246;21.054;2022-08-03T06:36:32;100900.00;;;21.52;76.32
30897;BME280;17597;52.246;21.054;2022-08-03T06:38:58;100902.03;;;21.63;75.31
30897;BME280;17597;52.246;21.054;2022-08-03T06:41:24;100900.91;;;21.73;74.18
30897;BME280;17597;52.246;21.054;2022-08-03T06:43:50;100904.63;;;21.60;74.92
30897;BME280;17597;52.246;21.054;2022-08-03T06:46:15;100919.28;;;21.67;74.21
30897;BME280;17597;52.246;21.054;2022-08-03T06:48:40;100909.84;;;21.65;74.17
30897;BME280;17597;52.246;21.054;2022-08-03T06:51:06;100907.44;;;21.72;74.03
30897;BME280;17597;52.246;21.054;2022-08-03T06:53:33;100903.16;;;21.62;74.81
30897;BME280;17597;52.246;21.054;2022-08-03T06:55:58;100913.22;;;21.71;74.89
30897;BME280;17597;52.246;21.054;2022-08-03T06:58:24;100904.06;;;21.75;74.92
30897;BME280;17597;52.246;21.054;2022-08-03T07:00:49;100904.41;;;21.74;74.68
30897;BME280;17597;52.246;21.054;2022-08-03T07:03:15;100901.78;;;21.94;72.70
30897;BME280;17597;52.246;21.054;2022-08-03T07:05:41;100911.03;;;22.02;73.40
30897;BME280;17597;52.246;21.054;2022-08-03T07:08:08;100908.78;;;22.04;73.61
30897;BME280;17597;52.246;21.054;2022-08-03T07:10:33;100922.34;;;22.13;72.70
30897;BME280;17597;52.246;21.054;2022-08-03T07:12:58;100920.34;;;22.31;71.99
30897;BME280;17597;52.246;21.054;2022-08-03T07:15:24;100923.22;;;22.34;71.40
30897;BME280;17597;52.246;21.054;2022-08-03T07:17:50;100922.34;;;22.42;71.65
30897;BME280;17597;52.246;21.054;2022-08-03T07:20:16;100925.13;;;22.84;69.08
30897;BME280;17597;52.246;21.054;2022-08-03T07:22:43;100918.09;;;23.04;67.86
30897;BME280;17597;52.246;21.054;2022-08-03T07:25:08;100917.25;;;23.12;67.98
30897;BME280;17597;52.246;21.054;2022-08-03T07:27:35;100912.91;;;23.32;67.18
30897;BME280;17597;52.246;21.054;2022-08-03T07:30:01;100914.31;;;23.50;66.28
30897;BME280;17597;52.246;21.054;2022-08-03T07:32:29;100914.16;;;23.67;66.05
30897;BME280;17597;52.246;21.054;2022-08-03T07:34:56;100918.66;;;24.33;64.34
30897;BME280;17597;52.246;21.054;2022-08-03T07:37:22;100925.66;;;25.39;60.52
30897;BME280;17597;52.246;21.054;2022-08-03T07:39:47;100919.66;;;25.93;59.09
30897;BME280;17597;52.246;21.054;2022-08-03T07:42:13;100918.34;;;26.69;57.12
30897;BME280;17597;52.246;21.054;2022-08-03T07:44:38;100924.06;;;27.61;54.66
30897;BME280;17597;52.246;21.054;2022-08-03T07:47:04;100931.66;;;29.26;50.29
30897;BME280;17597;52.246;21.054;2022-08-03T07:49:30;100932.09;;;30.13;47.33
30897;BME280;17597;52.246;21.054;2022-08-03T07:51:55;100926.03;;;30.48;44.67
30897;BME280;17597;52.246;21.054;2022-08-03T07:54:39;100933.88;;;29.51;46.91
30897;BME280;17597;52.246;21.054;2022-08-03T07:57:04;100930.34;;;29.17;48.09
30897;BME280;17597;52.246;21.054;2022-08-03T07:59:30;100933.56;;;30.04;46.01
30897;BME280;17597;52.246;21.054;2022-08-03T08:01:55;100929.28;;;31.77;43.00
30897;BME280;17597;52.246;21.054;2022-08-03T08:04:21;100924.91;;;33.38;38.78
30897;BME280;17597;52.246;21.054;2022-08-03T08:06:46;100938.38;;;34.33;36.95
30897;BME280;17597;52.246;21.054;2022-08-03T08:09:12;100922.44;;;35.43;34.26
30897;BME280;17597;52.246;21.054;2022-08-03T08:11:39;100930.28;;;35.98;33.09
30897;BME280;17597;52.246;21.054;2022-08-03T08:14:05;100933.75;;;37.25;30.63
30897;BME280;17597;52.246;21.054;2022-08-03T08:16:31;100938.34;;;38.87;28.98
30897;BME280;17597;52.246;21.054;2022-08-03T08:18:56;100933.22;;;40.22;26.32
30897;BME280;17597;52.246;21.054;2022-08-03T08:21:22;100937.19;;;40.99;25.55
30897;BME280;17597;52.246;21.054;2022-08-03T08:23:47;100944.06;;;42.34;23.93
30897;BME280;17597;52.246;21.054;2022-08-03T08:26:12;100936.28;;;43.08;22.46
30897;BME280;17597;52.246;21.054;2022-08-03T08:28:38;100938.75;;;43.72;21.80
30897;BME280;17597;52.246;21.054;2022-08-03T08:31:03;100938.44;;;44.32;19.78
30897;BME280;17597;52.246;21.054;2022-08-03T08:33:29;100937.38;;;44.15;19.68
30897;BME280;17597;52.246;21.054;2022-08-03T08:35:54;100932.16;;;44.37;19.88
30897;BME280;17597;52.246;21.054;2022-08-03T08:38:21;100933.13;;;44.49;20.16
30897;BME280;17597;52.246;21.054;2022-08-03T08:40:48;100927.53;;;44.79;19.19
30897;BME280;17597;52.246;21.054;2022-08-03T08:43:13;100927.47;;;45.08;18.27
30897;BME280;17597;52.246;21.054;2022-08-03T08:45:39;100936.78;;;45.29;17.90
30897;BME280;17597;52.246;21.054;2022-08-03T08:48:06;100926.91;;;45.74;17.86
30897;BME280;17597;52.246;21.054;2022-08-03T08:50:32;100929.28;;;45.81;17.67
30897;BME280;17597;52.246;21.054;2022-08-03T08:53:01;100922.38;;;45.82;17.51
30897;BME280;17597;52.246;21.054;2022-08-03T08:55:28;100922.06;;;46.01;17.48
30897;BME280;17597;52.246;21.054;2022-08-03T08:58:00;100924.41;;;46.02;17.17
30897;BME280;17597;52.246;21.054;2022-08-03T09:00:26;100922.97;;;46.59;16.00
30897;BME280;17597;52.246;21.054;2022-08-03T09:02:52;100919.66;;;46.66;15.87
30897;BME280;17597;52.246;21.054;2022-08-03T09:05:18;100919.75;;;46.46;16.71
30897;BME280;17597;52.246;21.054;2022-08-03T09:07:45;100918.00;;;46.48;15.83
30897;BME280;17597;52.246;21.054;2022-08-03T09:10:12;100907.44;;;45.97;15.98
30897;BME280;17597;52.246;21.054;2022-08-03T09:12:43;100909.59;;;46.33;15.42
30897;BME280;17597;52.246;21.054;2022-08-03T09:15:35;100913.66;;;46.27;15.42
30897;BME280;17597;52.246;21.054;2022-08-03T09:18:03;100923.22;;;45.13;16.25
30897;BME280;17597;52.246;21.054;2022-08-03T09:20:33;100916.34;;;44.25;18.06
30897;BME280;17597;52.246;21.054;2022-08-03T09:23:06;100924.16;;;42.83;18.98
30897;BME280;17597;52.246;21.054;2022-08-03T09:25:40;100921.03;;;41.53;20.49
30897;BME280;17597;52.246;21.054;2022-08-03T09:28:09;100913.38;;;40.95;20.83
30897;BME280;17597;52.246;21.054;2022-08-03T09:30:43;100913.38;;;40.29;20.93
30897;BME280;17597;52.246;21.054;2022-08-03T09:33:13;100901.84;;;40.05;21.33
30897;BME280;17597;52.246;21.054;2022-08-03T09:35:44;100913.34;;;38.96;22.52
30897;BME280;17597;52.246;21.054;2022-08-03T09:40:37;100903.97;;;39.67;22.93
30897;BME280;17597;52.246;21.054;2022-08-03T09:43:03;100902.88;;;39.26;23.37
30897;BME280;17597;52.246;21.054;2022-08-03T09:45:30;100898.72;;;39.56;22.16
30897;BME280;17597;52.246;21.054;2022-08-03T09:47:56;100903.38;;;40.85;19.71
30897;BME280;17597;52.246;21.054;2022-08-03T09:50:24;100906.47;;;39.26;21.17
30897;BME280;17597;52.246;21.054;2022-08-03T09:52:50;100898.81;;;40.34;20.82
30897;BME280;17597;52.246;21.054;2022-08-03T09:55:16;100902.91;;;39.99;20.72
30897;BME280;17597;52.246;21.054;2022-08-03T09:57:44;100892.81;;;40.01;20.92
30897;BME280;17597;52.246;21.054;2022-08-03T10:00:13;100893.16;;;40.03;21.09
30897;BME280;17597;52.246;21.054;2022-08-03T10:02:43;100892.69;;;38.94;22.93
30897;BME280;17597;52.246;21.054;2022-08-03T10:05:12;100888.50;;;38.60;23.34
30897;BME280;17597;52.246;21.054;2022-08-03T10:07:48;100889.09;;;38.39;23.83
30897;BME280;17597;52.246;21.054;2022-08-03T10:10:15;100885.78;;;39.24;23.00
30897;BME280;17597;52.246;21.054;2022-08-03T10:12:42;100889.97;;;38.07;23.63
30897;BME280;17597;52.246;21.054;2022-08-03T10:15:09;100887.59;;;37.76;23.60
30897;BME280;17597;52.246;21.054;2022-08-03T10:17:36;100887.59;;;36.52;25.45
30897;BME280;17597;52.246;21.054;2022-08-03T10:20:03;100888.81;;;35.60;26.62
30897;BME280;17597;52.246;21.054;2022-08-03T10:22:32;100878.38;;;34.91;27.20
30897;BME280;17597;52.246;21.054;2022-08-03T10:25:03;100883.56;;;34.17;28.38
30897;BME280;17597;52.246;21.054;2022-08-03T10:27:46;100881.72;;;33.55;29.32
30897;BME280;17597;52.246;21.054;2022-08-03T10:30:15;100882.94;;;32.73;31.14
30897;BME280;17597;52.246;21.054;2022-08-03T10:32:51;100884.25;;;31.23;34.38
30897;BME280;17597;52.246;21.054;2022-08-03T10:35:20;100877.19;;;30.38;35.66
30897;BME280;17597;52.246;21.054;2022-08-03T10:37:58;100880.84;;;30.57;35.26
30897;BME280;17597;52.246;21.054;2022-08-03T10:40:26;100878.16;;;30.67;35.19
30897;BME280;17597;52.246;21.054;2022-08-03T10:42:54;100872.16;;;30.55;36.18
30897;BME280;17597;52.246;21.054;2022-08-03T10:45:26;100878.47;;;29.96;37.70
30897;BME280;17597;52.246;21.054;2022-08-03T10:47:54;100872.88;;;29.86;37.44
30897;BME280;17597;52.246;21.054;2022-08-03T10:50:24;100874.44;;;29.80;37.83
30897;BME280;17597;52.246;21.054;2022-08-03T10:52:56;100876.41;;;29.86;38.02
30897;BME280;17597;52.246;21.054;2022-08-03T11:01:06;100878.59;;;29.63;35.09
30897;BME280;17597;52.246;21.054;2022-08-03T11:03:33;100876.34;;;29.76;35.29
30897;BME280;17597;52.246;21.054;2022-08-03T11:06:16;100873.13;;;29.66;37.80
30897;BME280;17597;52.246;21.054;2022-08-03T11:08:44;100873.72;;;29.46;38.11
30897;BME280;17597;52.246;21.054;2022-08-03T11:13:55;100874.31;;;29.25;38.16
30897;BME280;17597;52.246;21.054;2022-08-03T11:16:22;100869.47;;;29.52;37.52
30897;BME280;17597;52.246;21.054;2022-08-03T11:19:05;100870.97;;;29.90;37.10
30897;BME280;17597;52.246;21.054;2022-08-03T11:35:28;100857.00;;;29.65;37.73
30897;BME280;17597;52.246;21.054;2022-08-03T11:43:49;100855.75;;;29.18;38.79
30897;BME280;17597;52.246;21.054;2022-08-03T11:48:21;100856.03;;;29.06;38.32
30897;BME280;17597;52.246;21.054;2022-08-03T11:50:48;100855.00;;;28.88;37.19
30897;BME280;17597;52.246;21.054;2022-08-03T11:53:16;100844.13;;;28.95;38.18
30897;BME280;17597;52.246;21.054;2022-08-03T11:55:43;100850.34;;;29.25;36.73
30897;BME280;17597;52.246;21.054;2022-08-03T11:58:17;100848.13;;;29.42;37.81
30897;BME280;17597;52.246;21.054;2022-08-03T12:00:44;100854.41;;;29.42;37.86
30897;BME280;17597;52.246;21.054;2022-08-03T12:03:12;100846.69;;;29.55;37.48
30897;BME280;17597;52.246;21.054;2022-08-03T12:05:49;100842.03;;;29.59;36.06
30897;BME280;17597;52.246;21.054;2022-08-03T12:08:17;100849.13;;;29.63;35.53
30897;BME280;17597;52.246;21.054;2022-08-03T12:10:48;100843.41;;;29.38;36.27
30897;BME280;17597;52.246;21.054;2022-08-03T12:13:15;100837.63;;;29.14;38.03
30897;BME280;17597;52.246;21.054;2022-08-03T12:15:41;100840.53;;;29.28;36.85
30897;BME280;17597;52.246;21.054;2022-08-03T12:18:16;100838.88;;;29.57;36.18
30897;BME280;17597;52.246;21.054;2022-08-03T12:20:43;100835.28;;;29.53;36.18
30897;BME280;17597;52.246;21.054;2022-08-03T12:23:10;100831.78;;;29.56;37.56
30897;BME280;17597;52.246;21.054;2022-08-03T12:25:37;100832.53;;;29.53;37.11
30897;BME280;17597;52.246;21.054;2022-08-03T12:28:12;100833.75;;;29.15;37.87
30897;BME280;17597;52.246;21.054;2022-08-03T12:30:41;100833.56;;;28.67;38.80
30897;BME280;17597;52.246;21.054;2022-08-03T12:33:25;100839.31;;;28.55;39.19
30897;BME280;17597;52.246;21.054;2022-08-03T12:38:30;100831.91;;;29.29;35.89
30897;BME280;17597;52.246;21.054;2022-08-03T12:41:04;100828.34;;;28.88;36.61
30897;BME280;17597;52.246;21.054;2022-08-03T12:43:33;100829.91;;;28.56;37.58
30897;BME280;17597;52.246;21.054;2022-08-03T12:46:06;100825.31;;;28.33;37.70
30897;BME280;17597;52.246;21.054;2022-08-03T12:48:32;100815.47;;;28.29;37.35
30897;BME280;17597;52.246;21.054;2022-08-03T12:51:09;100820.00;;;28.47;37.00
30897;BME280;17597;52.246;21.054;2022-08-03T12:53:36;100820.34;;;28.42;37.00
30897;BME280;17597;52.246;21.054;2022-08-03T12:56:03;100820.19;;;28.62;36.54
30897;BME280;17597;52.246;21.054;2022-08-03T12:58:31;100823.13;;;28.79;36.89
30897;BME280;17597;52.246;21.054;2022-08-03T13:00:57;100821.44;;;29.01;37.28
30897;BME280;17597;52.246;21.054;2022-08-03T13:03:23;100778.78;;;29.15;37.33
30897;BME280;17597;52.246;21.054;2022-08-03T13:05:48;100799.31;;;29.76;36.42
30897;BME280;17597;52.246;21.054;2022-08-03T13:08:22;100796.69;;;29.97;36.03
30897;BME280;17597;52.246;21.054;2022-08-03T13:10:48;100803.03;;;30.01;35.66
30897;BME280;17597;52.246;21.054;2022-08-03T13:13:13;100792.94;;;30.27;34.64
30897;BME280;17597;52.246;21.054;2022-08-03T13:15:39;100792.69;;;30.60;35.42
30897;BME280;17597;52.246;21.054;2022-08-03T13:18:05;100801.00;;;30.64;34.19
30897;BME280;17597;52.246;21.054;2022-08-03T13:20:30;100791.22;;;30.84;34.04
30897;BME280;17597;52.246;21.054;2022-08-03T13:22:56;100799.09;;;31.03;33.80
30897;BME280;17597;52.246;21.054;2022-08-03T13:25:23;100790.03;;;30.81;34.50
30897;BME280;17597;52.246;21.054;2022-08-03T13:27:48;100793.44;;;30.46;35.50
30897;BME280;17597;52.246;21.054;2022-08-03T13:30:14;100786.53;;;30.05;35.85
30897;BME280;17597;52.246;21.054;2022-08-03T13:32:41;100786.88;;;29.45;36.48